createdAt,value
2022-08-28T00:01:26.462Z,100674.06
2022-08-28T00:06:20.222Z,100694.31
2022-08-28T00:11:14.990Z,100710.34
2022-08-28T00:16:09.113Z,100634.50
2022-08-28T00:21:02.992Z,100712.19
2022-08-28T00:25:56.440Z,100716.00
2022-08-28T00:30:54.769Z,100715.88
2022-08-28T00:35:49.590Z,100622.09
2022-08-28T00:40:44.906Z,100684.59
2022-08-28T00:45:40.093Z,100706.34
2022-08-28T00:50:52.325Z,100706.00
2022-08-28T00:55:46.147Z,100677.81
2022-08-28T01:00:41.265Z,100705.84
2022-08-28T01:05:41.810Z,100593.59
2022-08-28T01:10:39.059Z,100523.69
2022-08-28T01:15:39.093Z,100623.72
2022-08-28T01:20:36.097Z,100591.41
2022-08-28T01:25:35.161Z,100662.75
2022-08-28T01:30:29.300Z,100639.16
2022-08-28T01:35:25.847Z,100636.22
2022-08-28T01:40:27.974Z,100688.91
2022-08-28T01:45:24.928Z,100706.78
2022-08-28T01:50:21.841Z,100593.66
2022-08-28T01:55:15.514Z,100719.06
2022-08-28T02:00:15.641Z,100695.66
2022-08-28T02:05:13.064Z,100599.44
2022-08-28T02:10:07.660Z,100470.19
2022-08-28T02:15:01.351Z,100681.72
2022-08-28T02:19:54.861Z,100705.69
2022-08-28T02:24:49.865Z,100602.19
2022-08-28T02:29:44.269Z,100718.44
2022-08-28T02:34:37.936Z,100606.31
2022-08-28T02:39:31.663Z,100656.84
2022-08-28T02:44:26.426Z,100529.28
2022-08-28T02:49:20.308Z,100706.34
2022-08-28T02:54:13.908Z,100604.09
2022-08-28T02:59:11.762Z,100536.34
2022-08-28T03:04:06.775Z,100733.38
2022-08-28T03:09:00.226Z,100564.25
2022-08-28T03:13:53.721Z,100656.47
2022-08-28T03:18:47.646Z,100749.06
2022-08-28T03:23:43.559Z,100745.22
2022-08-28T03:28:40.384Z,100762.44
2022-08-28T03:33:34.722Z,100663.75
2022-08-28T03:38:29.107Z,100705.81
2022-08-28T03:43:26.321Z,100646.03
2022-08-28T03:48:20.323Z,100757.59
2022-08-28T03:53:13.909Z,100736.50
2022-08-28T03:58:07.921Z,100763.44
2022-08-28T04:03:04.731Z,100744.00
2022-08-28T04:07:58.381Z,100771.94
2022-08-28T04:12:54.205Z,100781.41
2022-08-28T04:17:52.333Z,100647.31
2022-08-28T04:22:50.027Z,100779.94
2022-08-28T04:27:51.811Z,100706.16
2022-08-28T04:32:50.167Z,100778.38
2022-08-28T04:37:44.015Z,100776.72
2022-08-28T04:42:40.125Z,100786.63
2022-08-28T04:47:38.623Z,100791.59
2022-08-28T04:52:34.651Z,100800.03
2022-08-28T04:57:27.882Z,100792.72
2022-08-28T05:02:25.245Z,100640.28
2022-08-28T05:07:18.500Z,100797.31
2022-08-28T05:12:17.379Z,100794.44
2022-08-28T05:17:10.697Z,100786.53
2022-08-28T05:22:05.414Z,100807.41
2022-08-28T05:26:58.664Z,100809.94
2022-08-28T05:31:54.860Z,100827.13
2022-08-28T05:36:50.087Z,100823.09
2022-08-28T05:41:46.560Z,100799.09
2022-08-28T05:46:46.758Z,100795.97
2022-08-28T05:51:42.018Z,100793.09
2022-08-28T05:56:38.681Z,100829.91
2022-08-28T06:01:41.590Z,100827.91
2022-08-28T06:06:39.865Z,100729.41
2022-08-28T06:11:38.985Z,100789.19
2022-08-28T06:16:42.180Z,100829.34
2022-08-28T06:21:37.146Z,100829.47
2022-08-28T06:26:33.378Z,100842.31
2022-08-28T06:31:29.732Z,100842.00
2022-08-28T06:36:30.631Z,100800.78
2022-08-28T06:41:25.135Z,100852.88
2022-08-28T06:46:21.884Z,100854.16
2022-08-28T06:51:15.766Z,100851.75
2022-08-28T06:56:25.774Z,100797.31
2022-08-28T07:01:27.156Z,100829.84
2022-08-28T07:06:21.967Z,100845.66
2022-08-28T07:11:26.091Z,100848.13
2022-08-28T07:16:21.527Z,100844.00
2022-08-28T07:21:17.790Z,100841.84
2022-08-28T07:26:15.132Z,100791.44
2022-08-28T07:31:16.151Z,100810.84
2022-08-28T07:36:29.565Z,100806.00
2022-08-28T07:41:26.056Z,100799.25
2022-08-28T07:46:21.772Z,100832.50
2022-08-28T07:51:17.359Z,100809.94
2022-08-28T07:56:11.923Z,100834.34
2022-08-28T08:01:05.440Z,100799.06
2022-08-28T08:06:05.973Z,100837.50
2022-08-28T08:11:01.456Z,100801.81
2022-08-28T08:15:54.968Z,100816.31
2022-08-28T08:20:48.521Z,100832.03
2022-08-28T08:25:55.257Z,100828.94
2022-08-28T08:30:52.297Z,100809.81
2022-08-28T08:35:48.365Z,100800.97
2022-08-28T08:40:45.888Z,100810.16
2022-08-28T08:45:43.301Z,100807.31
2022-08-28T08:50:39.804Z,100795.59
2022-08-28T09:01:05.098Z,100815.31
2022-08-28T09:06:03.669Z,100815.81
2022-08-28T09:11:13.772Z,100809.03
2022-08-28T09:16:15.190Z,100811.72
2022-08-28T09:21:08.522Z,100801.44
2022-08-28T09:26:09.323Z,100801.16
2022-08-28T09:31:08.768Z,100803.34
2022-08-28T09:36:29.113Z,100799.81
2022-08-28T09:41:43.716Z,100765.16
2022-08-28T09:46:44.777Z,100773.00
2022-08-28T09:51:39.526Z,100772.75
2022-08-28T09:56:36.937Z,100790.66
2022-08-28T10:01:56.964Z,100790.38
2022-08-28T10:06:54.817Z,100778.16
2022-08-28T10:11:55.217Z,100776.53
2022-08-28T10:16:57.473Z,100775.47
2022-08-28T10:21:59.742Z,100765.16
2022-08-28T10:27:08.710Z,100764.34
2022-08-28T10:32:26.737Z,100763.22
2022-08-28T10:37:30.339Z,100751.81
2022-08-28T10:42:35.988Z,100743.91
2022-08-28T10:47:30.988Z,100762.88
2022-08-28T10:52:31.782Z,100751.66
2022-08-28T10:57:37.311Z,100624.75
2022-08-28T11:02:33.349Z,100755.03
2022-08-28T11:07:36.466Z,100738.16
2022-08-28T11:12:44.472Z,100733.63
2022-08-28T11:17:44.093Z,100729.13
2022-08-28T11:22:42.983Z,100705.34
2022-08-28T11:27:38.725Z,100707.16
2022-08-28T11:33:04.249Z,100726.28
2022-08-28T11:37:59.390Z,100737.25
2022-08-28T11:42:52.736Z,100716.03
2022-08-28T11:48:02.161Z,100705.84
2022-08-28T11:53:37.259Z,100716.50
2022-08-28T11:58:41.962Z,100716.75
2022-08-28T12:03:47.205Z,100702.97
2022-08-28T12:09:15.519Z,100692.72
2022-08-28T12:14:09.340Z,100705.56
2022-08-28T12:19:07.810Z,100684.69
2022-08-28T12:24:09.922Z,100695.91
2022-08-28T12:29:24.697Z,100678.16
2022-08-28T12:34:32.923Z,100674.53
2022-08-28T12:39:26.544Z,100674.81
2022-08-28T12:44:33.934Z,100687.75
2022-08-28T12:49:35.825Z,100682.88
2022-08-28T12:54:29.951Z,100684.78
2022-08-28T12:59:27.310Z,100685.31
2022-08-28T13:04:29.603Z,100651.94
2022-08-28T13:09:28.727Z,100680.66
2022-08-28T13:14:38.493Z,100676.06
2022-08-28T13:19:33.736Z,100658.41
2022-08-28T13:24:49.078Z,100663.81
2022-08-28T13:29:57.285Z,100659.44
2022-08-28T13:35:34.782Z,100645.91
2022-08-28T13:40:56.856Z,100663.44
2022-08-28T13:45:48.371Z,100649.00
2022-08-28T13:57:03.767Z,100578.31
2022-08-28T14:02:19.414Z,100650.78
2022-08-28T14:07:13.029Z,100638.38
2022-08-28T14:12:09.929Z,100622.63
2022-08-28T14:17:05.079Z,100644.28
2022-08-28T14:21:58.471Z,100620.31
2022-08-28T14:26:56.312Z,100634.94
2022-08-28T14:31:54.325Z,100652.47
2022-08-28T14:36:50.951Z,100603.56
2022-08-28T14:41:46.248Z,100651.00
2022-08-28T14:46:39.748Z,100649.56
2022-08-28T14:51:36.028Z,100645.03
2022-08-28T14:56:31.623Z,100619.69
2022-08-28T15:01:26.558Z,100639.97
2022-08-28T15:06:34.965Z,100637.16
2022-08-28T15:11:29.953Z,100621.03
2022-08-28T15:16:29.893Z,100620.41
2022-08-28T15:21:26.705Z,100638.00
2022-08-28T15:26:23.115Z,100631.84
2022-08-28T15:31:17.272Z,100641.59
2022-08-28T15:36:10.905Z,100644.25
2022-08-28T15:41:21.767Z,100642.63
2022-08-28T15:46:16.627Z,100633.53
2022-08-28T15:51:09.968Z,100627.66
2022-08-28T15:56:11.579Z,100603.88
2022-08-28T16:01:05.075Z,100599.56
2022-08-28T16:05:59.775Z,100620.16
2022-08-28T16:10:53.910Z,100604.44
2022-08-28T16:15:47.966Z,100614.47
2022-08-28T16:20:42.218Z,100601.38
2022-08-28T16:25:36.912Z,100601.06
2022-08-28T16:30:30.208Z,100597.16
2022-08-28T16:35:24.356Z,100581.06
2022-08-28T16:40:17.892Z,100634.63
2022-08-28T16:45:17.261Z,100562.53
2022-08-28T16:50:26.973Z,100640.56
2022-08-28T16:55:32.648Z,100432.41
2022-08-28T17:00:31.819Z,100645.00
2022-08-28T17:05:27.524Z,100463.84
2022-08-28T17:10:27.849Z,100596.34
2022-08-28T17:15:32.924Z,100487.69
2022-08-28T17:20:46.084Z,100528.09
2022-08-28T17:25:45.457Z,100684.75
2022-08-28T17:30:43.944Z,100632.03
2022-08-28T17:35:44.285Z,100677.91
2022-08-28T17:40:44.732Z,100709.16
2022-08-28T17:45:38.407Z,100580.97
2022-08-28T17:50:34.365Z,100635.22
2022-08-28T17:55:30.609Z,100563.06
2022-08-28T18:00:38.532Z,100620.59
2022-08-28T18:05:34.149Z,100574.31
2022-08-28T18:10:33.680Z,100647.53
2022-08-28T18:15:27.618Z,100671.84
2022-08-28T18:20:21.492Z,100562.59
2022-08-28T18:25:33.000Z,100557.28
2022-08-28T18:30:27.672Z,100736.78
2022-08-28T18:35:31.805Z,100657.41
2022-08-28T18:40:27.372Z,100641.22
2022-08-28T18:45:20.994Z,100743.19
2022-08-28T18:50:15.824Z,100710.91
2022-08-28T18:55:12.276Z,100668.75
2022-08-28T19:00:11.624Z,100741.97
2022-08-28T19:05:06.394Z,100575.38
2022-08-28T19:10:18.309Z,100711.59
2022-08-28T19:15:33.888Z,100723.34
2022-08-28T19:20:28.622Z,100604.34
2022-08-28T19:25:33.729Z,100537.00
2022-08-28T19:30:37.109Z,100676.25
2022-08-28T19:35:32.394Z,100754.31
2022-08-28T19:40:27.923Z,100700.75
2022-08-28T19:45:23.416Z,100738.97
2022-08-28T19:50:24.255Z,100773.50
2022-08-28T19:55:24.237Z,100692.91
2022-08-28T20:00:24.059Z,100789.78
2022-08-28T20:05:22.355Z,100782.44
2022-08-28T20:10:21.015Z,100796.00
2022-08-28T20:15:26.623Z,100721.47
2022-08-28T20:20:27.986Z,100801.13
2022-08-28T20:25:25.795Z,100772.19
2022-08-28T20:30:21.406Z,100793.38
2022-08-28T20:35:31.747Z,100735.28
2022-08-28T20:40:29.031Z,100804.09
2022-08-28T20:45:23.146Z,100731.00
2022-08-28T20:50:17.035Z,100819.56
2022-08-28T20:55:16.001Z,100732.22
2022-08-28T21:00:12.756Z,100819.16
2022-08-28T21:05:07.036Z,100790.16
2022-08-28T21:10:06.871Z,100827.78
2022-08-28T21:15:03.649Z,100829.81
2022-08-28T21:19:58.875Z,100656.03
2022-08-28T21:24:55.228Z,100724.88
2022-08-28T21:29:53.580Z,100645.69
2022-08-28T21:34:47.242Z,100692.69
2022-08-28T21:39:45.517Z,100827.38
2022-08-28T21:44:51.614Z,100714.81
2022-08-28T21:49:52.166Z,100753.13
2022-08-28T21:54:46.914Z,100833.03
2022-08-28T21:59:45.166Z,100770.59
2022-08-28T22:04:40.829Z,100758.47
2022-08-28T22:09:36.629Z,100855.25
2022-08-28T22:14:32.917Z,100838.16
2022-08-28T22:19:27.643Z,100768.00
2022-08-28T22:24:23.825Z,100823.25
2022-08-28T22:29:17.916Z,100750.19
2022-08-28T22:34:12.763Z,100844.53
2022-08-28T22:39:08.304Z,100856.59
2022-08-28T22:44:04.397Z,100850.84
2022-08-28T22:48:59.355Z,100795.28
2022-08-28T22:53:54.566Z,100752.84
2022-08-28T22:58:48.627Z,100668.38
2022-08-28T23:03:48.687Z,100777.00
2022-08-28T23:08:44.572Z,100840.69
2022-08-28T23:13:41.670Z,100777.63
2022-08-28T23:18:51.961Z,100845.44
2022-08-28T23:23:49.062Z,100706.41
2022-08-28T23:28:46.724Z,100826.28
2022-08-28T23:33:43.434Z,100847.66
2022-08-28T23:38:42.903Z,100866.03
2022-08-28T23:43:39.016Z,100830.94
2022-08-28T23:48:35.758Z,100860.91
2022-08-28T23:53:30.696Z,100865.22
2022-08-28T23:58:24.454Z,100767.81
